Time;durP1;ratioP1;P1;durP2;ratioP2;P2;SDS_P1;SDS_P2;PMS_P1;PMS_P2;Temp;Humidity;BMP_temperature;BMP_pressure;BME280_temperature;BME280_humidity;BME280_pressure;Samples;Min_cycle;Max_cycle;Signal;HPM_P1;HPM_P2
2022/03/28 00:02:09;;;;;;;24.33;12.75;;;14.00;52.10;;;;;;5020594;28;20057;-43
2022/03/28 00:04:37;;;;;;;19.92;12.88;;;13.90;52.20;;;;;;5018024;28;20525;-42
2022/03/28 00:07:05;;;;;;;22.83;13.90;;;13.90;52.20;;;;;;5018195;28;20073;-44
2022/03/28 00:09:32;;;;;;;23.02;13.20;;;13.90;52.30;;;;;;5021180;28;20501;-42
2022/03/28 00:12:00;;;;;;;21.25;11.73;;;13.90;52.40;;;;;;5020032;28;20485;-46
2022/03/28 00:14:27;;;;;;;20.85;12.45;;;13.80;52.40;;;;;;5017411;28;20060;-43
2022/03/28 00:16:56;;;;;;;24.10;13.85;;;13.80;52.40;;;;;;5020492;28;20485;-43
2022/03/28 00:19:25;;;;;;;20.17;12.35;;;13.80;52.50;;;;;;5020355;28;20053;-42
2022/03/28 00:21:52;;;;;;;19.65;12.57;;;13.70;52.50;;;;;;5022033;28;20477;-42
2022/03/28 00:24:20;;;;;;;23.85;13.48;;;13.70;52.50;;;;;;5022918;28;20057;-42
2022/03/28 00:26:48;;;;;;;21.33;12.70;;;13.70;52.60;;;;;;5023644;28;20069;-42
2022/03/28 00:29:15;;;;;;;23.40;13.13;;;13.60;52.60;;;;;;5024647;28;20053;-42
2022/03/28 00:31:43;;;;;;;19.70;12.35;;;13.60;52.60;;;;;;5023511;28;20056;-44
2022/03/28 00:34:10;;;;;;;20.77;12.90;;;13.60;52.70;;;;;;5019560;28;20061;-44
2022/03/28 00:36:39;;;;;;;21.42;13.07;;;13.60;52.70;;;;;;5036746;28;20053;-44
2022/03/28 00:39:06;;;;;;;22.25;13.13;;;13.60;52.80;;;;;;5043417;28;20048;-42
2022/03/28 00:41:34;;;;;;;25.30;14.30;;;13.60;53.30;;;;;;5045310;28;20524;-42
2022/03/28 00:44:01;;;;;;;27.15;14.10;;;13.50;52.90;;;;;;5041153;28;20067;-43
2022/03/28 00:46:29;;;;;;;21.70;13.88;;;13.50;53.00;;;;;;5043216;28;20049;-45
2022/03/28 00:48:56;;;;;;;23.65;13.85;;;13.40;53.10;;;;;;5044441;28;20059;-43
2022/03/28 00:51:24;;;;;;;26.42;14.95;;;13.40;53.10;;;;;;5043335;28;20708;-43
2022/03/28 00:53:53;;;;;;;23.45;14.23;;;13.40;53.20;;;;;;5041835;28;20574;-42
2022/03/28 00:56:21;;;;;;;26.23;15.35;;;13.40;53.30;;;;;;5044163;28;20072;-43
2022/03/28 00:58:49;;;;;;;25.50;14.77;;;13.40;53.30;;;;;;5042372;28;20048;-43
2022/03/28 01:01:17;;;;;;;21.58;13.60;;;13.30;53.30;;;;;;5043025;28;20053;-42
2022/03/28 01:03:45;;;;;;;23.67;13.45;;;13.30;53.30;;;;;;5042663;28;20500;-43
2022/03/28 01:06:13;;;;;;;22.67;13.20;;;13.30;53.40;;;;;;5042596;28;20424;-43
2022/03/28 01:08:41;;;;;;;23.35;13.35;;;13.30;53.40;;;;;;5042933;28;20053;-43
2022/03/28 01:11:10;;;;;;;23.40;14.23;;;13.30;53.40;;;;;;5044872;28;20052;-42
2022/03/28 01:13:41;;;;;;;21.67;13.15;;;13.20;53.50;;;;;;5042395;28;20385;-42
2022/03/28 01:16:09;;;;;;;22.52;13.10;;;13.20;53.60;;;;;;5041970;28;20057;-42
2022/03/28 01:18:36;;;;;;;21.33;13.35;;;13.20;53.60;;;;;;5043445;28;20500;-42
2022/03/28 01:21:06;;;;;;;22.02;13.80;;;13.10;53.60;;;;;;5043425;28;20060;-42
2022/03/28 01:23:33;;;;;;;22.63;13.88;;;13.10;53.80;;;;;;5041373;28;20060;-43
2022/03/28 01:26:01;;;;;;;21.52;13.60;;;13.10;53.80;;;;;;5041709;28;20068;-42
2022/03/28 01:28:29;;;;;;;25.05;14.93;;;13.00;53.80;;;;;;5043538;28;20057;-43
2022/03/28 01:30:56;;;;;;;24.42;14.65;;;13.00;53.80;;;;;;5043308;28;20052;-43
2022/03/28 01:33:24;;;;;;;21.70;13.50;;;13.00;53.90;;;;;;5038238;28;20056;-43
2022/03/28 01:35:53;;;;;;;22.75;13.57;;;13.00;54.00;;;;;;5040626;28;20543;-42
2022/03/28 01:38:23;;;;;;;21.00;13.15;;;13.00;54.00;;;;;;5033385;28;20052;-48
2022/03/28 01:40:52;;;;;;;23.30;14.35;;;12.90;54.10;;;;;;5042903;28;20408;-45
2022/03/28 01:43:22;;;;;;;18.42;12.27;;;12.90;54.10;;;;;;5043083;28;20520;-43
2022/03/28 01:45:50;;;;;;;25.23;14.43;;;12.90;54.10;;;;;;5039703;28;20053;-43
2022/03/28 01:48:18;;;;;;;21.45;13.55;;;12.80;54.10;;;;;;5041534;28;20053;-42
2022/03/28 01:50:45;;;;;;;24.35;14.07;;;12.80;54.20;;;;;;5039297;28;20064;-43
2022/03/28 01:53:12;;;;;;;20.90;13.23;;;12.80;54.20;;;;;;5039784;28;20056;-43
2022/03/28 01:55:41;;;;;;;23.63;14.60;;;12.80;54.30;;;;;;5040726;28;20064;-44
2022/03/28 01:58:09;;;;;;;23.42;13.93;;;12.80;54.40;;;;;;5043498;28;20049;-44
2022/03/28 02:00:37;;;;;;;21.98;13.85;;;12.70;54.40;;;;;;5038360;28;20064;-43
2022/03/28 02:03:04;;;;;;;19.92;12.63;;;12.70;54.50;;;;;;5043145;28;20062;-42
2022/03/28 02:05:32;;;;;;;21.42;13.57;;;12.70;54.50;;;;;;5040816;28;20057;-42
2022/03/28 02:07:59;;;;;;;21.20;13.88;;;12.60;54.50;;;;;;5041695;28;20444;-42
2022/03/28 02:10:27;;;;;;;22.75;14.30;;;12.60;54.60;;;;;;5041599;28;20067;-42
2022/03/28 02:12:56;;;;;;;22.95;13.23;;;12.60;54.70;;;;;;5041997;28;20057;-43
2022/03/28 02:15:23;;;;;;;20.10;12.45;;;12.60;54.70;;;;;;5040428;28;20049;-43
2022/03/28 02:17:51;;;;;;;20.98;12.27;;;12.60;54.70;;;;;;5042130;28;20053;-42
2022/03/28 02:20:19;;;;;;;20.52;12.50;;;12.50;54.70;;;;;;5039609;28;20400;-44
2022/03/28 02:22:47;;;;;;;21.23;12.60;;;12.50;54.70;;;;;;5041519;28;20489;-46
2022/03/28 02:25:16;;;;;;;23.17;13.15;;;12.50;54.70;;;;;;5039977;28;20053;-43
2022/03/28 02:27:44;;;;;;;21.58;13.65;;;12.40;54.70;;;;;;5042645;28;20060;-43
2022/03/28 02:30:15;;;;;;;23.30;13.68;;;12.40;54.70;;;;;;5040687;28;20049;-43
2022/03/28 02:32:43;;;;;;;23.42;14.85;;;12.40;54.70;;;;;;5042391;28;20440;-43
2022/03/28 02:35:11;;;;;;;23.73;15.05;;;12.40;54.70;;;;;;5038968;28;20061;-42
2022/03/28 02:37:39;;;;;;;22.80;14.20;;;12.40;54.90;;;;;;5041051;28;20060;-43
2022/03/28 02:40:08;;;;;;;25.20;14.77;;;12.30;54.80;;;;;;5041078;28;20052;-43
2022/03/28 02:42:36;;;;;;;23.95;14.70;;;12.30;54.90;;;;;;5041173;28;20057;-42
2022/03/28 02:45:04;;;;;;;25.38;15.02;;;12.30;55.00;;;;;;5039552;28;20064;-43
2022/03/28 02:47:33;;;;;;;24.05;14.07;;;12.30;55.00;;;;;;5041087;28;20568;-42
2022/03/28 02:50:01;;;;;;;23.20;13.93;;;12.30;55.10;;;;;;5042299;28;20057;-43
2022/03/28 02:52:28;;;;;;;28.05;15.48;;;12.20;55.10;;;;;;5039658;28;20048;-42
2022/03/28 02:54:56;;;;;;;22.60;13.68;;;12.20;55.20;;;;;;5039488;28;20432;-42
2022/03/28 02:57:23;;;;;;;24.48;14.20;;;12.20;55.30;;;;;;5041942;28;20511;-42
2022/03/28 02:59:51;;;;;;;23.75;14.23;;;12.20;55.30;;;;;;5039648;28;20056;-42
2022/03/28 03:02:18;;;;;;;22.65;13.85;;;12.20;55.30;;;;;;5040505;28;20068;-43
2022/03/28 03:04:47;;;;;;;22.38;13.90;;;12.10;55.30;;;;;;5039504;28;20453;-42
2022/03/28 03:07:14;;;;;;;22.02;12.88;;;12.10;55.40;;;;;;5040648;28;20060;-43
2022/03/28 03:09:42;;;;;;;20.65;12.35;;;12.10;55.30;;;;;;5041778;28;20523;-43
2022/03/28 03:12:10;;;;;;;19.83;12.55;;;12.10;55.30;;;;;;5041280;28;20059;-43
2022/03/28 03:14:38;;;;;;;19.17;12.52;;;12.10;55.40;;;;;;5039217;28;20053;-42
2022/03/28 03:17:05;;;;;;;21.50;13.27;;;12.10;55.40;;;;;;5036186;28;20053;-43
2022/03/28 03:19:33;;;;;;;20.98;12.88;;;12.00;55.40;;;;;;5036848;28;20484;-43
2022/03/28 03:22:02;;;;;;;19.83;12.35;;;12.00;55.40;;;;;;5040048;28;20056;-42
2022/03/28 03:24:30;;;;;;;25.17;15.15;;;12.00;55.40;;;;;;5039387;28;20045;-48
2022/03/28 03:26:57;;;;;;;22.00;13.43;;;12.00;55.50;;;;;;5038965;28;20056;-42
2022/03/28 03:29:24;;;;;;;18.25;12.25;;;12.00;55.50;;;;;;5040582;28;20041;-42
2022/03/28 03:31:52;;;;;;;24.85;12.65;;;11.90;55.50;;;;;;5039527;28;20053;-43
2022/03/28 03:34:20;;;;;;;21.48;12.93;;;11.90;55.50;;;;;;5037775;28;20064;-42
2022/03/28 03:36:47;;;;;;;16.20;10.75;;;11.90;55.50;;;;;;5040041;28;20065;-45
2022/03/28 03:39:16;;;;;;;17.83;11.05;;;11.90;55.60;;;;;;5037538;28;20049;-44
2022/03/28 03:41:44;;;;;;;19.08;11.38;;;11.90;55.60;;;;;;5037687;28;20053;-42
2022/03/28 03:44:12;;;;;;;17.70;11.50;;;11.80;55.60;;;;;;5037289;28;20060;-46
2022/03/28 03:46:39;;;;;;;19.85;11.50;;;11.80;55.60;;;;;;5040470;28;20060;-44
2022/03/28 03:49:08;;;;;;;22.60;11.95;;;11.80;56.20;;;;;;5041619;28;20533;-42
2022/03/28 03:51:36;;;;;;;20.40;12.18;;;11.80;55.80;;;;;;5040496;28;20849;-43
2022/03/28 03:54:04;;;;;;;17.23;11.65;;;11.80;55.90;;;;;;5039946;28;20064;-43
2022/03/28 03:56:33;;;;;;;18.38;10.75;;;11.70;55.80;;;;;;5042656;28;20071;-42
2022/03/28 03:59:01;;;;;;;17.67;11.38;;;11.70;56.40;;;;;;5045437;28;20068;-42
2022/03/28 04:01:28;;;;;;;17.58;11.07;;;11.70;55.90;;;;;;5048224;28;20048;-42
2022/03/28 04:03:56;;;;;;;16.65;10.45;;;11.70;55.90;;;;;;5060350;28;20053;-46
2022/03/28 04:06:24;;;;;;;21.02;11.82;;;11.60;55.90;;;;;;5060845;28;20818;-45
2022/03/28 04:08:52;;;;;;;18.40;10.68;;;11.60;56.10;;;;;;5063011;28;20587;-42
2022/03/28 04:11:19;;;;;;;17.95;10.88;;;11.60;56.10;;;;;;5065932;28;20393;-43
2022/03/28 04:13:48;;;;;;;16.98;10.30;;;11.60;56.10;;;;;;5063337;28;20385;-43
2022/03/28 04:16:16;;;;;;;15.32;10.50;;;11.60;56.10;;;;;;5059796;28;20052;-43
2022/03/28 04:18:43;;;;;;;19.15;11.23;;;11.60;56.10;;;;;;5064016;28;20056;-43
2022/03/28 04:21:10;;;;;;;16.67;11.13;;;11.60;56.10;;;;;;5064611;28;20544;-42
2022/03/28 04:23:38;;;;;;;16.08;10.38;;;11.60;56.20;;;;;;5063404;28;20059;-44
2022/03/28 04:26:05;;;;;;;15.50;10.68;;;11.60;56.20;;;;;;5063119;28;20052;-43
2022/03/28 04:28:33;;;;;;;16.10;10.18;;;11.60;56.20;;;;;;5062765;28;20060;-45
2022/03/28 04:31:02;;;;;;;21.17;11.45;;;11.50;56.10;;;;;;5063808;28;20047;-46
2022/03/28 04:33:29;;;;;;;16.95;10.45;;;11.50;56.20;;;;;;5064785;28;20912;-43
2022/03/28 04:35:56;;;;;;;18.33;11.15;;;11.50;56.10;;;;;;5060611;28;20543;-43
2022/03/28 04:38:25;;;;;;;18.98;11.13;;;11.50;56.20;;;;;;5061960;28;20056;-43
2022/03/28 04:40:52;;;;;;;18.73;11.27;;;11.50;56.20;;;;;;5063343;28;20044;-43
2022/03/28 04:43:20;;;;;;;18.67;11.70;;;11.50;56.30;;;;;;5063594;28;20052;-43
2022/03/28 04:45:47;;;;;;;18.65;11.35;;;11.50;56.30;;;;;;5062245;28;20055;-43
2022/03/28 04:48:16;;;;;;;22.95;12.57;;;11.50;56.40;;;;;;5063126;28;20067;-43
2022/03/28 04:50:44;;;;;;;34.28;19.80;;;11.50;56.50;;;;;;5064839;28;20048;-44
2022/03/28 04:53:11;;;;;;;27.92;17.27;;;11.40;56.40;;;;;;5062579;28;20055;-43
2022/03/28 04:55:39;;;;;;;26.85;13.93;;;11.40;56.50;;;;;;5063249;28;20052;-43
2022/03/28 04:58:06;;;;;;;20.85;12.45;;;11.40;56.50;;;;;;5063151;28;20064;-43
2022/03/28 05:00:34;;;;;;;18.70;11.95;;;11.40;56.60;;;;;;5061415;28;20049;-42
2022/03/28 05:03:01;;;;;;;20.40;13.13;;;11.40;56.60;;;;;;5058417;28;20052;-43
2022/03/28 05:05:30;;;;;;;21.98;12.90;;;11.40;56.70;;;;;;5060078;28;20384;-43
2022/03/28 05:07:58;;;;;;;18.60;11.65;;;11.40;56.80;;;;;;5060398;28;20048;-44
2022/03/28 05:10:25;;;;;;;16.63;11.35;;;11.40;56.80;;;;;;5063703;28;20053;-43
2022/03/28 05:12:53;;;;;;;17.48;11.48;;;11.30;56.80;;;;;;5063643;28;20053;-42
2022/03/28 05:15:20;;;;;;;19.95;11.88;;;11.30;56.80;;;;;;5060696;28;20441;-43
2022/03/28 05:17:48;;;;;;;21.05;12.50;;;11.30;56.80;;;;;;5062636;28;20074;-43
2022/03/28 05:20:15;;;;;;;18.80;12.38;;;11.30;56.90;;;;;;5062401;28;20427;-44
2022/03/28 05:22:44;;;;;;;19.95;11.75;;;11.30;56.90;;;;;;5060972;28;20500;-43
2022/03/28 05:25:12;;;;;;;19.77;12.30;;;11.30;57.00;;;;;;5061113;28;20052;-46
2022/03/28 05:27:43;;;;;;;21.33;12.32;;;11.30;57.00;;;;;;5060286;28;20056;-45
2022/03/28 05:30:12;;;;;;;26.92;15.27;;;11.30;57.10;;;;;;5062352;28;20048;-42
2022/03/28 05:32:39;;;;;;;24.17;14.32;;;11.30;57.10;;;;;;5063065;28;20057;-43
2022/03/28 05:35:09;;;;;;;22.85;15.60;;;11.30;57.20;;;;;;5062780;28;20064;-42
2022/03/28 05:37:36;;;;;;;25.67;14.98;;;11.30;57.30;;;;;;5061106;28;20057;-42
2022/03/28 05:40:07;;;;;;;25.52;14.10;;;11.30;57.30;;;;;;5061647;28;20055;-43
2022/03/28 05:42:34;;;;;;;24.35;15.13;;;11.30;57.40;;;;;;5061555;28;20056;-43
2022/03/28 05:45:02;;;;;;;24.30;14.55;;;11.30;57.40;;;;;;5061135;28;20052;-48
2022/03/28 05:47:29;;;;;;;23.75;14.00;;;11.30;57.50;;;;;;5061587;28;20055;-44
2022/03/28 05:49:57;;;;;;;23.95;14.73;;;11.30;57.50;;;;;;5062722;28;20067;-43
2022/03/28 05:52:24;;;;;;;22.75;14.80;;;11.30;57.60;;;;;;5061772;28;20381;-43
2022/03/28 05:54:52;;;;;;;25.25;16.08;;;11.30;57.70;;;;;;5060470;28;20059;-44
2022/03/28 05:57:21;;;;;;;26.55;16.08;;;11.30;57.70;;;;;;5061160;28;20052;-43
2022/03/28 05:59:49;;;;;;;25.77;16.15;;;11.30;57.90;;;;;;5061969;28;20060;-43
2022/03/28 06:02:16;;;;;;;27.00;16.45;;;11.40;57.90;;;;;;5059797;28;20539;-43
2022/03/28 06:04:43;;;;;;;29.17;17.02;;;11.40;58.10;;;;;;5061265;28;20067;-43
2022/03/28 06:07:12;;;;;;;24.70;15.57;;;11.40;58.20;;;;;;5059454;28;20059;-43
2022/03/28 06:09:40;;;;;;;26.50;16.45;;;11.40;58.20;;;;;;5061837;28;20064;-43
2022/03/28 06:12:08;;;;;;;29.80;16.45;;;11.40;58.20;;;;;;5060155;28;20048;-43
2022/03/28 06:14:37;;;;;;;30.20;17.88;;;11.50;58.40;;;;;;5059238;28;20063;-43
2022/03/28 06:17:05;;;;;;;30.20;16.95;;;11.50;58.50;;;;;;5061616;28;20059;-43
2022/03/28 06:19:32;;;;;;;24.50;15.45;;;11.50;58.50;;;;;;5061378;28;20056;-43
2022/03/28 06:22:00;;;;;;;32.58;18.48;;;11.50;58.60;;;;;;5061662;28;20063;-43
2022/03/28 06:24:27;;;;;;;26.27;16.70;;;11.60;58.70;;;;;;5056896;28;20059;-43
2022/03/28 06:26:55;;;;;;;27.20;16.90;;;11.60;58.80;;;;;;5061585;28;20089;-43
2022/03/28 06:29:22;;;;;;;29.35;18.50;;;11.70;58.80;;;;;;5063170;28;20063;-43
2022/03/28 06:31:51;;;;;;;31.50;18.63;;;11.70;58.90;;;;;;5062088;28;20055;-43
2022/03/28 06:34:18;;;;;;;26.52;17.48;;;11.70;59.00;;;;;;5058773;28;20056;-43
2022/03/28 06:36:47;;;;;;;27.73;16.98;;;11.80;58.90;;;;;;5061179;28;20064;-43
2022/03/28 06:39:15;;;;;;;30.42;18.70;;;11.80;59.10;;;;;;5061722;28;20496;-44
2022/03/28 06:41:42;;;;;;;33.88;19.92;;;11.90;59.10;;;;;;5061995;28;20048;-43
2022/03/28 06:44:11;;;;;;;32.83;19.13;;;11.90;59.70;;;;;;5058867;28;20063;-43
2022/03/28 06:46:39;;;;;;;34.33;18.38;;;12.00;59.20;;;;;;5058306;28;20411;-44
2022/03/28 06:49:08;;;;;;;32.85;19.90;;;12.00;59.20;;;;;;5061688;28;20443;-43
2022/03/28 06:51:36;;;;;;;29.55;18.27;;;12.00;59.30;;;;;;5060590;28;20063;-43
2022/03/28 06:54:04;;;;;;;32.22;19.48;;;12.10;59.30;;;;;;5056962;28;20056;-47
2022/03/28 06:56:32;;;;;;;25.63;16.98;;;12.10;59.40;;;;;;5056711;28;20060;-43
2022/03/28 06:58:59;;;;;;;29.30;18.27;;;12.20;59.30;;;;;;5055983;28;20063;-43
2022/03/28 07:01:27;;;;;;;35.90;17.85;;;12.20;59.40;;;;;;5055044;28;20415;-43
2022/03/28 07:03:55;;;;;;;26.73;17.92;;;12.30;59.40;;;;;;5056236;28;20061;-43
2022/03/28 07:06:24;;;;;;;33.22;19.40;;;12.30;59.40;;;;;;5058404;28;20500;-43
2022/03/28 07:08:53;;;;;;;32.28;19.00;;;12.40;59.50;;;;;;5059118;28;20427;-43
2022/03/28 07:11:21;;;;;;;39.20;20.17;;;12.40;59.50;;;;;;5062001;28;20052;-43
2022/03/28 07:13:48;;;;;;;32.55;19.00;;;12.50;59.60;;;;;;5058846;28;20048;-43
2022/03/28 07:16:16;;;;;;;33.08;19.83;;;12.60;59.70;;;;;;5061257;28;20067;-44
2022/03/28 07:18:43;;;;;;;29.40;17.73;;;12.60;59.70;;;;;;5062209;28;20512;-43
2022/03/28 07:21:11;;;;;;;33.28;19.58;;;12.70;59.70;;;;;;5061762;28;20048;-45
2022/03/28 07:23:40;;;;;;;33.22;21.10;;;12.70;59.70;;;;;;5057588;28;20060;-45
2022/03/28 07:26:08;;;;;;;32.30;19.83;;;12.80;59.90;;;;;;5059921;28;20048;-42
2022/03/28 07:28:39;;;;;;;31.65;18.67;;;12.90;60.00;;;;;;5059453;28;20056;-43
2022/03/28 07:31:08;;;;;;;30.80;18.70;;;12.90;59.90;;;;;;5056256;28;20055;-43
2022/03/28 07:33:36;;;;;;;36.22;21.35;;;13.00;59.90;;;;;;5059729;28;20063;-44
2022/03/28 07:36:04;;;;;;;34.22;21.48;;;13.10;59.90;;;;;;5056963;28;20044;-43
2022/03/28 07:38:32;;;;;;;37.60;21.70;;;13.10;60.00;;;;;;5059394;28;20056;-43
2022/03/28 07:41:00;;;;;;;35.83;20.73;;;13.20;60.10;;;;;;5059646;28;20057;-43
2022/03/28 07:43:28;;;;;;;48.08;25.67;;;13.30;60.30;;;;;;5062072;28;20053;-43
2022/03/28 07:45:56;;;;;;;39.83;23.42;;;13.30;60.20;;;;;;5056027;28;20049;-43
2022/03/28 07:48:24;;;;;;;34.17;19.48;;;13.40;60.00;;;;;;5060509;28;20057;-43
2022/03/28 07:50:52;;;;;;;34.95;20.52;;;13.50;59.90;;;;;;5059703;28;20063;-44
2022/03/28 07:53:19;;;;;;;39.03;21.30;;;13.60;60.10;;;;;;5060771;28;20446;-42
2022/03/28 07:55:47;;;;;;;30.50;19.20;;;13.60;60.10;;;;;;5059080;28;20507;-43
2022/03/28 07:58:16;;;;;;;30.42;19.20;;;13.70;59.90;;;;;;5059574;28;20049;-42
2022/03/28 08:00:43;;;;;;;27.70;17.88;;;13.80;60.00;;;;;;5060283;28;20063;-45
2022/03/28 08:03:11;;;;;;;29.52;17.70;;;13.90;59.80;;;;;;5058034;28;20044;-43
2022/03/28 08:05:39;;;;;;;27.10;16.75;;;14.00;59.80;;;;;;5056926;28;20499;-43
2022/03/28 08:08:07;;;;;;;32.28;19.25;;;14.00;59.60;;;;;;5059213;28;20049;-42
2022/03/28 08:10:34;;;;;;;30.25;17.90;;;14.10;59.50;;;;;;5062209;28;20419;-42
2022/03/28 08:13:02;;;;;;;33.00;19.05;;;14.20;59.50;;;;;;5060626;28;20063;-43
2022/03/28 08:15:31;;;;;;;28.50;18.00;;;14.30;59.50;;;;;;5053302;28;20052;-44
2022/03/28 08:18:00;;;;;;;28.92;18.65;;;14.40;59.40;;;;;;5060068;28;20063;-42
2022/03/28 08:20:28;;;;;;;30.65;19.13;;;14.50;59.40;;;;;;5061597;28;20053;-43
2022/03/28 08:22:55;;;;;;;23.88;16.45;;;14.50;59.30;;;;;;5059763;28;20463;-42
2022/03/28 08:25:24;;;;;;;28.40;17.17;;;14.60;59.30;;;;;;5057614;28;20064;-42
2022/03/28 08:27:52;;;;;;;27.73;16.75;;;14.70;59.10;;;;;;5058687;28;20056;-44
2022/03/28 08:30:19;;;;;;;27.73;17.77;;;14.80;59.10;;;;;;5060965;28;20052;-42
2022/03/28 08:32:48;;;;;;;28.77;19.05;;;14.80;59.40;;;;;;5057755;28;20063;-42
2022/03/28 08:35:17;;;;;;;26.00;16.75;;;14.90;59.20;;;;;;5059804;28;20487;-43
2022/03/28 08:37:44;;;;;;;28.65;17.33;;;15.00;59.10;;;;;;5059408;28;20060;-43
2022/03/28 08:40:13;;;;;;;27.95;19.00;;;15.10;59.10;;;;;;5060017;28;20052;-43
2022/03/28 08:42:40;;;;;;;27.95;17.95;;;15.20;59.00;;;;;;5060958;28;20048;-42
2022/03/28 08:45:11;;;;;;;30.52;18.77;;;15.30;58.60;;;;;;5061361;28;20052;-43
2022/03/28 08:47:42;;;;;;;30.92;18.98;;;15.40;58.30;;;;;;5063008;28;20736;-42
2022/03/28 08:50:12;;;;;;;28.05;17.73;;;15.50;57.90;;;;;;5064168;28;20056;-42
2022/03/28 08:52:41;;;;;;;28.10;16.92;;;15.60;57.60;;;;;;5064532;28;20420;-48
2022/03/28 08:55:10;;;;;;;29.85;17.05;;;15.70;57.40;;;;;;5061404;28;20061;-43
2022/03/28 08:57:37;;;;;;;24.15;15.10;;;15.90;56.90;;;;;;5064064;28;20438;-43
2022/03/28 09:00:08;;;;;;;31.33;16.05;;;16.00;56.60;;;;;;5062069;28;20412;-43
2022/03/28 09:02:41;;;;;;;30.20;17.52;;;16.10;56.30;;;;;;5062721;28;20040;-43
2022/03/28 09:05:11;;;;;;;33.70;16.48;;;16.10;55.50;;;;;;5061751;28;20061;-43
2022/03/28 09:07:38;;;;;;;32.90;17.80;;;16.30;54.60;;;;;;5061426;28;20059;-44
2022/03/28 09:10:13;;;;;;;35.70;17.38;;;16.40;53.00;;;;;;5063199;28;20053;-43
2022/03/28 09:12:59;;;;;;;25.75;14.77;;;16.40;52.90;;;;;;5064714;28;20049;-42
2022/03/28 09:15:28;;;;;;;35.35;15.43;;;16.60;52.40;;;;;;5058866;28;20056;-43
2022/03/28 09:17:57;;;;;;;30.50;15.88;;;16.70;51.70;;;;;;5063347;28;20049;-43
2022/03/28 09:20:26;;;;;;;29.67;16.23;;;16.80;51.20;;;;;;5064672;28;20075;-45
2022/03/28 09:22:53;;;;;;;28.08;16.52;;;16.90;50.90;;;;;;5062460;28;20056;-42
2022/03/28 09:25:21;;;;;;;27.70;15.43;;;17.00;50.90;;;;;;5062841;28;20404;-43
2022/03/28 09:27:49;;;;;;;26.83;14.30;;;17.00;50.90;;;;;;5059925;28;20048;-44
2022/03/28 09:30:18;;;;;;;23.20;14.88;;;17.20;51.10;;;;;;5059954;28;20060;-43
2022/03/28 09:32:47;;;;;;;26.05;15.13;;;17.20;50.80;;;;;;5063008;28;20052;-42
2022/03/28 09:35:20;;;;;;;28.98;15.50;;;17.30;50.90;;;;;;5059244;28;20053;-43
2022/03/28 09:37:50;;;;;;;31.83;16.88;;;17.40;50.80;;;;;;5061090;28;20048;-42
2022/03/28 09:40:29;;;;;;;24.70;15.05;;;17.40;50.20;;;;;;5061144;28;20070;-42
2022/03/28 09:42:57;;;;;;;34.45;17.13;;;17.50;50.10;;;;;;5062318;28;20064;-43
2022/03/28 09:45:27;;;;;;;32.22;16.98;;;17.50;49.90;;;;;;5056576;28;20048;-43
2022/03/28 09:48:00;;;;;;;27.80;15.43;;;17.60;49.40;;;;;;5062353;28;20064;-43
2022/03/28 09:50:37;;;;;;;31.33;16.83;;;17.60;48.90;;;;;;5063054;28;20099;-42
2022/03/28 09:53:19;;;;;;;27.75;14.88;;;17.70;48.20;;;;;;5058899;28;20396;-43
2022/03/28 09:55:49;;;;;;;29.45;14.88;;;17.70;47.70;;;;;;5063149;28;20083;-43
2022/03/28 09:58:38;;;;;;;24.90;14.10;;;17.80;48.30;;;;;;5061873;28;20049;-43
2022/03/28 10:01:08;;;;;;;29.63;14.40;;;17.90;47.80;;;;;;5055061;28;20056;-42
2022/03/28 10:03:37;;;;;;;31.15;16.08;;;17.90;46.30;;;;;;5061715;28;20059;-43
2022/03/28 10:06:06;;;;;;;30.98;16.05;;;18.00;45.90;;;;;;5059916;28;20425;-44
2022/03/28 10:08:37;;;;;;;28.17;15.18;;;18.00;45.80;;;;;;5060355;28;20055;-43
2022/03/28 10:11:10;;;;;;;28.38;16.85;;;18.00;46.00;;;;;;5068338;28;20466;-43
2022/03/28 10:13:42;;;;;;;32.03;16.35;;;18.10;45.60;;;;;;5068724;28;20075;-43
2022/03/28 10:16:13;;;;;;;25.00;13.60;;;18.10;45.00;;;;;;5068855;28;20051;-43
2022/03/28 10:18:45;;;;;;;27.23;15.05;;;18.20;45.50;;;;;;5068709;28;20067;-43
2022/03/28 10:21:18;;;;;;;31.58;15.40;;;18.20;45.60;;;;;;5068966;28;20058;-42
2022/03/28 10:23:59;;;;;;;36.03;18.13;;;18.30;45.50;;;;;;5067875;28;20071;-43
2022/03/28 10:26:33;;;;;;;29.35;15.43;;;18.30;45.10;;;;;;5066204;28;20052;-43
2022/03/28 10:29:10;;;;;;;32.33;16.65;;;18.30;45.00;;;;;;5068512;28;20627;-47
2022/03/28 10:31:59;;;;;;;35.58;17.30;;;18.40;44.60;;;;;;5069301;28;20053;-44
2022/03/28 10:34:47;;;;;;;26.75;15.80;;;18.50;44.80;;;;;;5066042;28;20044;-43
2022/03/28 10:37:33;;;;;;;25.73;15.20;;;18.50;44.70;;;;;;5066028;28;20061;-43
2022/03/28 10:40:27;;;;;;;29.58;16.25;;;18.60;45.00;;;;;;5068163;28;20408;-43
2022/03/28 10:43:04;;;;;;;28.77;15.25;;;18.60;43.90;;;;;;5068332;28;21094;-43
2022/03/28 10:45:37;;;;;;;30.33;14.93;;;18.70;43.50;;;;;;5065887;28;20060;-43
2022/03/28 10:48:07;;;;;;;23.92;13.65;;;18.70;43.90;;;;;;5069172;28;20060;-42
2022/03/28 10:53:31;;;;;;;31.27;15.93;;;18.90;43.70;;;;;;5059717;28;20044;-43
2022/03/28 10:56:02;;;;;;;26.10;15.27;;;18.90;44.30;;;;;;5058365;28;20055;-43
2022/03/28 10:58:32;;;;;;;29.20;16.38;;;18.90;44.70;;;;;;5060101;28;20052;-44
2022/03/28 11:01:36;;;;;;;25.67;15.18;;;19.00;45.20;;;;;;5062865;28;20063;-45
2022/03/28 11:04:07;;;;;;;27.05;15.02;;;19.00;44.30;;;;;;5061238;28;20052;-43
2022/03/28 11:06:59;;;;;;;24.48;14.77;;;19.10;44.50;;;;;;5059191;28;20480;-44
2022/03/28 11:09:48;;;;;;;32.55;16.45;;;19.20;44.10;;;;;;5062524;28;20087;-43
2022/03/28 11:12:20;;;;;;;33.28;17.17;;;19.20;43.10;;;;;;5062557;28;20059;-45
2022/03/28 11:14:56;;;;;;;29.75;15.05;;;19.20;43.10;;;;;;5060031;28;20408;-43
2022/03/28 11:17:25;;;;;;;23.25;12.50;;;19.20;42.80;;;;;;5062284;28;20052;-43
2022/03/28 11:20:00;;;;;;;26.38;14.15;;;19.30;42.70;;;;;;5062265;28;20053;-43
2022/03/28 11:22:44;;;;;;;27.30;14.50;;;19.30;42.50;;;;;;5058703;28;20056;-44
2022/03/28 11:25:46;;;;;;;31.38;15.02;;;19.40;41.80;;;;;;5058974;28;20067;-43
2022/03/28 11:28:18;;;;;;;25.05;12.35;;;19.40;40.70;;;;;;5062451;28;20052;-43
2022/03/28 11:30:51;;;;;;;27.23;13.73;;;19.40;41.20;;;;;;5062087;28;20495;-43
2022/03/28 11:33:21;;;;;;;26.37;14.17;;;19.40;40.80;;;;;;5060326;28;20049;-43
2022/03/28 11:35:54;;;;;;;28.38;13.52;;;19.40;40.40;;;;;;5057783;28;20610;-43
2022/03/28 11:38:24;;;;;;;30.35;15.18;;;19.50;40.20;;;;;;5060121;28;20424;-43
2022/03/28 11:40:52;;;;;;;27.80;14.13;;;19.50;40.50;;;;;;5060853;28;20048;-43
2022/03/28 11:43:32;;;;;;;32.17;14.88;;;19.50;40.20;;;;;;5060884;28;20052;-43
2022/03/28 11:46:01;;;;;;;25.73;12.60;;;19.60;39.10;;;;;;5060317;28;20476;-43
2022/03/28 11:48:30;;;;;;;29.63;12.65;;;19.60;38.40;;;;;;5057860;28;20432;-45
2022/03/28 11:50:57;;;;;;;21.17;11.07;;;19.70;39.30;;;;;;5058307;28;20064;-43
2022/03/28 11:53:25;;;;;;;19.50;9.65;;;19.70;39.10;;;;;;5056927;28;20040;-43
2022/03/28 11:55:55;;;;;;;18.88;9.45;;;19.80;38.60;;;;;;5059976;28;20057;-43
2022/03/28 11:58:31;;;;;;;23.25;11.98;;;19.80;37.20;;;;;;5060351;28;20053;-44
2022/03/28 12:01:09;;;;;;;22.67;11.27;;;19.90;37.00;;;;;;5058867;28;20408;-43
2022/03/28 12:03:38;;;;;;;23.88;12.18;;;19.90;38.50;;;;;;5058912;28;20067;-45
2022/03/28 12:06:06;;;;;;;24.60;11.38;;;20.00;37.60;;;;;;5056157;28;20049;-44
2022/03/28 12:08:34;;;;;;;22.88;11.77;;;20.00;36.90;;;;;;5057936;28;20059;-44
2022/03/28 12:11:01;;;;;;;27.67;13.02;;;20.10;37.30;;;;;;5061096;28;20053;-44
2022/03/28 12:13:30;;;;;;;28.60;13.52;;;20.10;37.50;;;;;;5059247;28;20040;-43
2022/03/28 12:15:57;;;;;;;26.95;13.65;;;20.10;36.90;;;;;;5058296;28;20131;-43
2022/03/28 12:18:30;;;;;;;31.83;14.13;;;20.20;37.50;;;;;;5065413;28;20067;-43
2022/03/28 12:20:58;;;;;;;29.08;15.35;;;20.20;36.80;;;;;;5064622;28;20251;-43
2022/03/28 12:23:28;;;;;;;22.95;13.27;;;20.30;37.20;;;;;;5064153;28;20052;-44
2022/03/28 12:26:00;;;;;;;25.05;13.40;;;20.30;37.90;;;;;;5061625;28;20060;-43
2022/03/28 12:28:33;;;;;;;31.88;13.52;;;20.40;37.20;;;;;;5065799;28;20056;-43
2022/03/28 12:31:02;;;;;;;28.33;15.43;;;20.40;37.20;;;;;;5060557;28;20056;-43
2022/03/28 12:33:33;;;;;;;24.80;13.75;;;20.40;37.10;;;;;;5065322;28;20052;-44
2022/03/28 12:36:03;;;;;;;32.22;14.93;;;20.50;36.30;;;;;;5061040;28;20052;-45
2022/03/28 12:38:33;;;;;;;31.08;14.15;;;20.50;36.60;;;;;;5060760;28;20044;-45
2022/03/28 12:41:03;;;;;;;26.77;13.35;;;20.50;36.40;;;;;;5062437;28;20056;-44
2022/03/28 12:43:33;;;;;;;29.65;12.65;;;20.60;36.10;;;;;;5062921;28;20049;-44